»·PEaware :: UAL280 KEGE-KPHX

UAL280 :: KEGE-KPHX

FLIGHT INFORMATION

Flight Status: Arrived
Operator:
United Airlines
More flights by this operator :: More flights under this callsign
Pilot: Ion I. (24133)
Aircraft: BOEING 737-800
(B738)
More flights by this aircraft type
Origin: KEGE Eagle Co Regl
United States
Destination: KPHX Phoenix Sky Harbor Intl
United States
More flights between these airports :: More routes between these airports
Route: BEVVR1 SPRKT JNC GUP EAGUL6
File this flight plan on PilotEdge
Remarks:
Altitude:
(Current/Filed)
34,000ft
Speed:
(Current/Filed)
460kts
Departed: 22-Aug-20 07:41 PM
Arrived: 22-Aug-20 09:01 PM
Distance/Time
Traveled:
446nm/1:20
Distance/Time
To Go:
Arrived

Flight Plot

Page will automatically refresh every two minutes.

Flight plan parsing failed; only flown route is shown


Map Options




Map Legend


Flown Route
Filed Route
Departure Airport
Arrival Airport
Navaid (VOR, NDB)
Fix

Horizontal Profiles

Position Reports

Time Latitude Longitude Heading Altitude Ground
Speed
22-Aug-20 19:01 39.640761 -106.913825 170 6523ft 0kts
22-Aug-20 19:02 39.640761 -106.913825 170 6523ft 0kts
22-Aug-20 19:03 39.640761 -106.913825 170 6523ft 0kts
22-Aug-20 19:04 39.640761 -106.913825 170 6523ft 0kts
22-Aug-20 19:05 39.640761 -106.913825 170 6523ft 0kts
22-Aug-20 19:06 39.640761 -106.913825 170 6523ft 0kts
22-Aug-20 19:07 39.640761 -106.913825 170 6523ft 0kts
22-Aug-20 19:08 39.640761 -106.913825 170 6523ft 0kts
22-Aug-20 19:09 39.640761 -106.913825 170 6523ft 0kts
22-Aug-20 19:10 39.640761 -106.913825 170 6523ft 0kts
22-Aug-20 19:11 39.640761 -106.913825 170 6523ft 0kts
22-Aug-20 19:12 39.640761 -106.913825 170 6523ft 0kts
22-Aug-20 19:13 39.640761 -106.913825 170 6523ft 0kts
22-Aug-20 19:14 39.640761 -106.913825 170 6523ft 0kts
22-Aug-20 19:15 39.640761 -106.913825 170 6523ft 0kts
22-Aug-20 19:16 39.640761 -106.913825 170 6523ft 0kts
22-Aug-20 19:17 39.640761 -106.913825 170 6523ft 0kts
22-Aug-20 19:18 39.640761 -106.913825 170 6523ft 0kts
22-Aug-20 19:19 39.640761 -106.913825 170 6523ft 0kts
22-Aug-20 19:20 39.640761 -106.913825 170 6523ft 0kts
22-Aug-20 19:21 39.640761 -106.913825 170 6523ft 0kts
22-Aug-20 19:23 39.640761 -106.913825 170 6523ft 0kts
22-Aug-20 19:24 39.640761 -106.913825 170 6523ft 0kts
22-Aug-20 19:25 39.640761 -106.913825 170 6523ft 0kts
22-Aug-20 19:26 39.640761 -106.913825 170 6523ft 0kts
22-Aug-20 19:27 39.640761 -106.913825 170 6523ft 0kts
22-Aug-20 19:28 39.640761 -106.913825 170 6523ft 0kts
22-Aug-20 19:29 39.640761 -106.913825 170 6523ft 0kts
22-Aug-20 19:30 39.640761 -106.913825 170 6523ft 0kts
22-Aug-20 19:31 39.641001 -106.913896 156 6523ft 2kts
22-Aug-20 19:32 39.641248 -106.914291 81 6523ft 0kts
22-Aug-20 19:33 39.641248 -106.914291 81 6523ft 0kts
22-Aug-20 19:34 39.641248 -106.914291 81 6523ft 0kts
22-Aug-20 19:35 39.641248 -106.914291 81 6523ft 0kts
22-Aug-20 19:36 39.641382 -106.913064 82 6523ft 7kts
22-Aug-20 19:37 39.642364 -106.909549 82 6523ft 16kts
22-Aug-20 19:38 39.643215 -106.901600 79 6523ft 26kts
22-Aug-20 19:38 39.643431 -106.900299 43 6523ft 0kts
22-Aug-20 19:40 39.644322 -106.900290 343 6523ft 8kts
22-Aug-20 19:41 39.641673 -106.925741 261 6523ft 159kts
22-Aug-20 19:41 39.627682 -106.969457 201 7821ft 173kts
22-Aug-20 19:42 39.582457 -107.005358 240 9767ft 215kts
22-Aug-20 19:44 39.605735 -107.095976 327 11811ft 282kts
22-Aug-20 19:44 39.666752 -107.105613 4 14411ft 268kts
22-Aug-20 19:45 39.729513 -107.159979 332 16526ft 294kts
22-Aug-20 19:46 39.802971 -107.221242 315 17897ft 344kts
22-Aug-20 19:47 39.860690 -107.333574 303 18653ft 402kts
22-Aug-20 19:48 39.924256 -107.457765 301 20367ft 417kts
22-Aug-20 19:49 39.922364 -107.602581 237 22061ft 429kts
22-Aug-20 19:50 39.836987 -107.714024 226 23535ft 440kts
22-Aug-20 19:51 39.752167 -107.830196 229 24880ft 447kts
22-Aug-20 19:52 39.667045 -107.950419 229 26074ft 455kts
22-Aug-20 19:53 39.580445 -108.072088 229 27185ft 462kts
22-Aug-20 19:54 39.492555 -108.194857 229 28182ft 469kts
22-Aug-20 19:55 39.403159 -108.319211 229 29323ft 470kts
22-Aug-20 19:56 39.314432 -108.442146 230 30729ft 465kts
22-Aug-20 19:57 39.226951 -108.563418 230 32208ft 457kts
22-Aug-20 19:58 39.140294 -108.682264 230 33630ft 450kts
22-Aug-20 19:59 39.044348 -108.785436 202 34068ft 466kts
22-Aug-20 20:00 38.913300 -108.797636 184 34078ft 477kts
22-Aug-20 20:01 38.780589 -108.799364 184 34082ft 476kts
22-Aug-20 20:02 38.648277 -108.802215 184 34104ft 476kts
22-Aug-20 20:03 38.515421 -108.805255 184 34119ft 477kts
22-Aug-20 20:04 38.382913 -108.808303 184 34186ft 477kts
22-Aug-20 20:05 38.249974 -108.811351 184 34240ft 477kts
22-Aug-20 20:06 38.117068 -108.814392 184 34205ft 477kts
22-Aug-20 20:07 37.984064 -108.817429 184 34215ft 483kts
22-Aug-20 20:08 37.847352 -108.820526 184 34274ft 494kts
22-Aug-20 20:09 37.709935 -108.823629 184 34284ft 494kts
22-Aug-20 20:10 37.572308 -108.826731 184 34268ft 494kts
22-Aug-20 20:11 37.434945 -108.829828 184 34255ft 494kts
22-Aug-20 20:12 37.297314 -108.832889 184 34241ft 494kts
22-Aug-20 20:13 37.159790 -108.835959 184 34230ft 494kts
22-Aug-20 20:14 37.022147 -108.839011 183 34229ft 495kts
22-Aug-20 20:15 36.884231 -108.842062 183 34225ft 495kts
22-Aug-20 20:16 36.746659 -108.845101 183 34222ft 496kts
22-Aug-20 20:17 36.608237 -108.848141 183 34228ft 496kts
22-Aug-20 20:18 36.470533 -108.851149 183 34236ft 496kts
22-Aug-20 20:19 36.332123 -108.854170 183 34249ft 497kts
22-Aug-20 20:20 36.193763 -108.857173 183 34263ft 497kts
22-Aug-20 20:21 36.055472 -108.860165 183 34276ft 497kts
22-Aug-20 20:22 35.916935 -108.863158 183 34285ft 498kts
22-Aug-20 20:23 35.778576 -108.866134 183 34289ft 497kts
22-Aug-20 20:24 35.639953 -108.869116 183 34288ft 497kts
22-Aug-20 20:25 35.502316 -108.877273 198 34275ft 492kts
22-Aug-20 20:26 35.396004 -108.973698 230 34286ft 478kts
22-Aug-20 20:27 35.305179 -109.092911 229 34291ft 478kts
22-Aug-20 20:28 35.213835 -109.210928 229 34292ft 478kts
22-Aug-20 20:29 35.123962 -109.326731 229 34281ft 462kts
22-Aug-20 20:30 35.035149 -109.440754 229 34285ft 463kts
22-Aug-20 20:31 34.946117 -109.554278 228 34267ft 464kts
22-Aug-20 20:32 34.882730 -109.687693 249 34267ft 457kts
22-Aug-20 20:33 34.833794 -109.830935 249 34270ft 457kts
22-Aug-20 20:34 34.791153 -109.976198 259 34274ft 455kts
22-Aug-20 20:35 34.764661 -110.129299 259 33765ft 467kts
22-Aug-20 20:36 34.739279 -110.283737 259 32765ft 464kts
22-Aug-20 20:37 34.712533 -110.436074 251 31762ft 457kts
22-Aug-20 20:38 34.669475 -110.575046 243 30551ft 427kts
22-Aug-20 20:39 34.600523 -110.690357 224 28632ft 417kts
22-Aug-20 20:40 34.512835 -110.779885 219 26176ft 407kts
22-Aug-20 20:41 34.426478 -110.865625 218 23743ft 398kts
22-Aug-20 20:42 34.342067 -110.949258 218 21483ft 385kts
22-Aug-20 20:43 34.260432 -111.030506 218 19298ft 373kts
22-Aug-20 20:44 34.181596 -111.108524 217 17296ft 359kts
22-Aug-20 20:45 34.105373 -111.183912 218 15718ft 352kts
22-Aug-20 20:46 34.028376 -111.259757 218 14047ft 361kts
22-Aug-20 20:47 33.952858 -111.333628 218 12508ft 337kts
22-Aug-20 20:48 33.882505 -111.402451 218 11671ft 310kts
22-Aug-20 20:49 33.818827 -111.457594 215 10469ft 310kts
22-Aug-20 20:50 33.750387 -111.516380 215 9511ft 299kts
22-Aug-20 20:51 33.684533 -111.572852 216 8395ft 275kts
22-Aug-20 20:52 33.626412 -111.622375 216 7840ft 249kts
22-Aug-20 20:53 33.569942 -111.669547 216 6634ft 246kts
22-Aug-20 20:54 33.513922 -111.716775 216 5471ft 243kts
22-Aug-20 20:55 33.462378 -111.766473 236 4446ft 221kts
22-Aug-20 20:56 33.440424 -111.822648 270 3872ft 174kts
22-Aug-20 20:57 33.440736 -111.881203 274 2940ft 168kts
22-Aug-20 20:58 33.441026 -111.936272 267 2021ft 162kts
22-Aug-20 20:59 33.440869 -111.990931 270 1220ft 167kts
22-Aug-20 21:00 33.440822 -112.015960 265 1143ft 24kts
22-Aug-20 21:01 33.439705 -112.015495 86 1143ft 9kts
22-Aug-20 21:02 33.439733 -112.011545 88 1143ft 20kts
22-Aug-20 21:03 33.439120 -112.007399 179 1143ft 1kts
22-Aug-20 21:04 33.437575 -112.007831 277 1143ft 4kts
22-Aug-20 21:05 33.437575 -112.008038 269 1143ft 0kts
22-Aug-20 21:06 33.437575 -112.008038 269 1143ft 0kts
22-Aug-20 21:07 33.437575 -112.008038 269 1143ft 0kts
22-Aug-20 21:08 33.437575 -112.008038 269 1143ft 0kts
22-Aug-20 21:09 33.437575 -112.008038 269 1143ft 0kts
22-Aug-20 21:10 33.437575 -112.008038 269 1143ft 0kts
22-Aug-20 21:11 33.437575 -112.008038 269 1143ft 0kts
22-Aug-20 21:12 33.437575 -112.008038 269 1143ft 0kts

Navigation Log

Ident Type
Flight plan parsing failed, navigation log unavailable